sensor_id;sensor_type;location;lat;lon;timestamp;P1;durP1;ratioP1;P2;durP2;ratioP2
80115;SDS011;69423;47.608;19.366;2023-12-22T00:00:04;37.37;;;36.10;;
80115;SDS011;69423;47.608;19.366;2023-12-22T00:00:35;36.20;;;34.83;;
80115;SDS011;69423;47.608;19.366;2023-12-22T00:01:07;36.83;;;35.37;;
80115;SDS011;69423;47.608;19.366;2023-12-22T00:01:38;37.60;;;36.07;;
80115;SDS011;69423;47.608;19.366;2023-12-22T00:02:09;37.23;;;35.67;;
80115;SDS011;69423;47.608;19.366;2023-12-22T00:02:40;36.43;;;35.03;;
80115;SDS011;69423;47.608;19.366;2023-12-22T00:03:11;36.10;;;34.83;;
80115;SDS011;69423;47.608;19.366;2023-12-22T00:03:42;35.93;;;34.63;;
80115;SDS011;69423;47.608;19.366;2023-12-22T00:04:16;37.17;;;35.90;;
80115;SDS011;69423;47.608;19.366;2023-12-22T00:04:47;37.17;;;35.30;;
80115;SDS011;69423;47.608;19.366;2023-12-22T00:05:18;37.93;;;36.00;;
80115;SDS011;69423;47.608;19.366;2023-12-22T00:05:49;36.67;;;35.13;;
80115;SDS011;69423;47.608;19.366;2023-12-22T00:06:20;35.63;;;34.50;;
80115;SDS011;69423;47.608;19.366;2023-12-22T00:06:51;35.47;;;34.40;;
80115;SDS011;69423;47.608;19.366;2023-12-22T00:07:22;35.33;;;34.30;;
80115;SDS011;69423;47.608;19.366;2023-12-22T00:07:53;33.93;;;32.80;;
80115;SDS011;69423;47.608;19.366;2023-12-22T00:08:24;34.60;;;33.23;;
80115;SDS011;69423;47.608;19.366;2023-12-22T00:08:55;34.47;;;32.97;;
80115;SDS011;69423;47.608;19.366;2023-12-22T00:09:26;34.33;;;32.93;;
80115;SDS011;69423;47.608;19.366;2023-12-22T00:09:57;34.43;;;32.93;;
80115;SDS011;69423;47.608;19.366;2023-12-22T00:10:28;33.10;;;31.83;;
80115;SDS011;69423;47.608;19.366;2023-12-22T00:10:59;34.00;;;32.87;;
80115;SDS011;69423;47.608;19.366;2023-12-22T00:11:31;32.50;;;31.47;;
80115;SDS011;69423;47.608;19.366;2023-12-22T00:12:02;32.73;;;31.50;;
80115;SDS011;69423;47.608;19.366;2023-12-22T00:12:33;32.57;;;31.63;;
80115;SDS011;69423;47.608;19.366;2023-12-22T00:13:04;29.77;;;28.90;;
80115;SDS011;69423;47.608;19.366;2023-12-22T00:13:35;30.13;;;29.23;;
80115;SDS011;69423;47.608;19.366;2023-12-22T00:14:06;29.07;;;28.23;;
80115;SDS011;69423;47.608;19.366;2023-12-22T00:14:37;27.70;;;26.67;;
80115;SDS011;69423;47.608;19.366;2023-12-22T00:15:10;27.97;;;26.93;;
80115;SDS011;69423;47.608;19.366;2023-12-22T00:15:41;27.80;;;26.80;;
80115;SDS011;69423;47.608;19.366;2023-12-22T00:16:13;25.73;;;24.63;;
80115;SDS011;69423;47.608;19.366;2023-12-22T00:16:44;25.97;;;24.90;;
80115;SDS011;69423;47.608;19.366;2023-12-22T00:17:15;25.80;;;24.90;;
80115;SDS011;69423;47.608;19.366;2023-12-22T00:17:46;25.87;;;25.23;;
80115;SDS011;69423;47.608;19.366;2023-12-22T00:18:18;25.47;;;24.50;;
80115;SDS011;69423;47.608;19.366;2023-12-22T00:18:49;23.43;;;22.60;;
80115;SDS011;69423;47.608;19.366;2023-12-22T00:19:20;22.23;;;21.60;;
80115;SDS011;69423;47.608;19.366;2023-12-22T00:19:51;23.03;;;22.20;;
80115;SDS011;69423;47.608;19.366;2023-12-22T00:20:22;24.17;;;23.07;;
80115;SDS011;69423;47.608;19.366;2023-12-22T00:20:53;23.10;;;22.23;;
80115;SDS011;69423;47.608;19.366;2023-12-22T00:21:24;21.47;;;20.70;;
80115;SDS011;69423;47.608;19.366;2023-12-22T00:21:57;21.33;;;20.47;;
80115;SDS011;69423;47.608;19.366;2023-12-22T00:22:29;20.53;;;19.93;;
80115;SDS011;69423;47.608;19.366;2023-12-22T00:23:00;19.37;;;18.73;;
80115;SDS011;69423;47.608;19.366;2023-12-22T00:23:31;19.10;;;18.40;;
80115;SDS011;69423;47.608;19.366;2023-12-22T00:24:06;18.40;;;17.80;;
80115;SDS011;69423;47.608;19.366;2023-12-22T00:24:37;18.30;;;17.70;;
80115;SDS011;69423;47.608;19.366;2023-12-22T00:25:08;18.90;;;18.33;;
80115;SDS011;69423;47.608;19.366;2023-12-22T00:25:40;19.43;;;18.73;;
80115;SDS011;69423;47.608;19.366;2023-12-22T00:26:11;18.13;;;17.37;;
80115;SDS011;69423;47.608;19.366;2023-12-22T00:26:42;19.30;;;18.47;;
80115;SDS011;69423;47.608;19.366;2023-12-22T00:27:13;19.00;;;17.87;;
80115;SDS011;69423;47.608;19.366;2023-12-22T00:27:44;18.33;;;17.30;;
80115;SDS011;69423;47.608;19.366;2023-12-22T00:28:15;18.17;;;17.43;;
80115;SDS011;69423;47.608;19.366;2023-12-22T00:28:46;17.90;;;17.40;;
80115;SDS011;69423;47.608;19.366;2023-12-22T00:29:17;17.63;;;17.13;;
80115;SDS011;69423;47.608;19.366;2023-12-22T00:29:48;16.60;;;16.00;;
80115;SDS011;69423;47.608;19.366;2023-12-22T00:30:19;17.33;;;16.80;;
80115;SDS011;69423;47.608;19.366;2023-12-22T00:30:50;16.70;;;16.23;;
80115;SDS011;69423;47.608;19.366;2023-12-22T00:31:21;17.93;;;17.40;;
80115;SDS011;69423;47.608;19.366;2023-12-22T00:31:52;17.47;;;16.87;;
80115;SDS011;69423;47.608;19.366;2023-12-22T00:32:23;16.87;;;16.23;;
80115;SDS011;69423;47.608;19.366;2023-12-22T00:32:54;15.90;;;15.40;;
80115;SDS011;69423;47.608;19.366;2023-12-22T00:33:25;16.67;;;15.90;;
80115;SDS011;69423;47.608;19.366;2023-12-22T00:33:56;16.83;;;16.00;;
80115;SDS011;69423;47.608;19.366;2023-12-22T00:34:27;16.47;;;15.77;;
80115;SDS011;69423;47.608;19.366;2023-12-22T00:34:58;16.57;;;15.90;;
80115;SDS011;69423;47.608;19.366;2023-12-22T00:35:29;16.57;;;16.03;;
80115;SDS011;69423;47.608;19.366;2023-12-22T00:36:00;16.43;;;16.03;;
80115;SDS011;69423;47.608;19.366;2023-12-22T00:36:31;15.77;;;15.37;;
80115;SDS011;69423;47.608;19.366;2023-12-22T00:37:02;13.87;;;13.53;;
80115;SDS011;69423;47.608;19.366;2023-12-22T00:37:35;14.43;;;14.07;;
80115;SDS011;69423;47.608;19.366;2023-12-22T00:38:06;14.53;;;14.23;;
80115;SDS011;69423;47.608;19.366;2023-12-22T00:38:37;14.20;;;13.90;;
80115;SDS011;69423;47.608;19.366;2023-12-22T00:39:08;13.73;;;13.43;;
80115;SDS011;69423;47.608;19.366;2023-12-22T00:39:39;13.67;;;13.33;;
80115;SDS011;69423;47.608;19.366;2023-12-22T00:40:10;12.97;;;12.77;;
80115;SDS011;69423;47.608;19.366;2023-12-22T00:40:41;13.43;;;13.10;;
80115;SDS011;69423;47.608;19.366;2023-12-22T00:41:12;13.50;;;13.17;;
80115;SDS011;69423;47.608;19.366;2023-12-22T00:41:43;13.00;;;12.73;;
80115;SDS011;69423;47.608;19.366;2023-12-22T00:42:14;12.57;;;12.30;;
80115;SDS011;69423;47.608;19.366;2023-12-22T00:42:45;12.63;;;12.33;;
80115;SDS011;69423;47.608;19.366;2023-12-22T00:43:16;13.03;;;12.67;;
80115;SDS011;69423;47.608;19.366;2023-12-22T00:43:47;13.03;;;12.70;;
80115;SDS011;69423;47.608;19.366;2023-12-22T00:44:18;12.87;;;12.57;;
80115;SDS011;69423;47.608;19.366;2023-12-22T00:44:49;12.20;;;12.00;;
80115;SDS011;69423;47.608;19.366;2023-12-22T00:45:21;12.97;;;12.63;;
80115;SDS011;69423;47.608;19.366;2023-12-22T00:45:52;12.50;;;12.20;;
80115;SDS011;69423;47.608;19.366;2023-12-22T00:46:23;12.67;;;12.27;;
80115;SDS011;69423;47.608;19.366;2023-12-22T00:46:54;12.47;;;12.13;;
80115;SDS011;69423;47.608;19.366;2023-12-22T00:47:25;11.93;;;11.70;;
80115;SDS011;69423;47.608;19.366;2023-12-22T00:47:56;11.20;;;10.87;;
80115;SDS011;69423;47.608;19.366;2023-12-22T00:48:27;11.07;;;10.80;;
80115;SDS011;69423;47.608;19.366;2023-12-22T00:48:58;10.67;;;10.50;;
80115;SDS011;69423;47.608;19.366;2023-12-22T00:49:29;10.50;;;10.30;;
80115;SDS011;69423;47.608;19.366;2023-12-22T00:50:01;10.47;;;10.20;;
80115;SDS011;69423;47.608;19.366;2023-12-22T00:50:32;9.97;;;9.73;;
80115;SDS011;69423;47.608;19.366;2023-12-22T00:51:05;10.27;;;10.07;;
80115;SDS011;69423;47.608;19.366;2023-12-22T00:51:37;10.03;;;9.83;;
80115;SDS011;69423;47.608;19.366;2023-12-22T00:52:08;9.80;;;9.60;;
80115;SDS011;69423;47.608;19.366;2023-12-22T00:52:39;9.77;;;9.50;;
80115;SDS011;69423;47.608;19.366;2023-12-22T00:53:10;9.30;;;9.10;;
80115;SDS011;69423;47.608;19.366;2023-12-22T00:53:41;9.03;;;8.90;;
80115;SDS011;69423;47.608;19.366;2023-12-22T00:54:13;9.17;;;8.93;;
80115;SDS011;69423;47.608;19.366;2023-12-22T00:54:44;9.23;;;9.03;;
80115;SDS011;69423;47.608;19.366;2023-12-22T00:55:15;9.00;;;8.90;;
80115;SDS011;69423;47.608;19.366;2023-12-22T00:55:46;9.43;;;9.33;;
80115;SDS011;69423;47.608;19.366;2023-12-22T00:56:17;8.93;;;8.73;;
80115;SDS011;69423;47.608;19.366;2023-12-22T00:56:48;7.80;;;7.60;;
80115;SDS011;69423;47.608;19.366;2023-12-22T00:57:19;8.60;;;8.27;;
80115;SDS011;69423;47.608;19.366;2023-12-22T00:57:50;9.40;;;9.00;;
80115;SDS011;69423;47.608;19.366;2023-12-22T00:58:21;9.03;;;8.70;;
80115;SDS011;69423;47.608;19.366;2023-12-22T00:58:52;8.67;;;8.37;;
80115;SDS011;69423;47.608;19.366;2023-12-22T00:59:24;8.20;;;7.97;;
80115;SDS011;69423;47.608;19.366;2023-12-22T00:59:55;8.57;;;8.33;;
80115;SDS011;69423;47.608;19.366;2023-12-22T01:00:26;8.43;;;8.23;;
80115;SDS011;69423;47.608;19.366;2023-12-22T01:00:57;8.07;;;7.87;;
80115;SDS011;69423;47.608;19.366;2023-12-22T01:01:28;8.50;;;8.47;;
80115;SDS011;69423;47.608;19.366;2023-12-22T01:01:59;7.77;;;7.73;;
80115;SDS011;69423;47.608;19.366;2023-12-22T01:02:30;6.97;;;6.97;;
80115;SDS011;69423;47.608;19.366;2023-12-22T01:03:01;7.77;;;7.73;;
80115;SDS011;69423;47.608;19.366;2023-12-22T01:03:33;7.87;;;7.77;;
80115;SDS011;69423;47.608;19.366;2023-12-22T01:04:04;7.40;;;7.30;;
80115;SDS011;69423;47.608;19.366;2023-12-22T01:04:35;7.53;;;7.40;;
80115;SDS011;69423;47.608;19.366;2023-12-22T01:05:06;7.07;;;6.93;;
80115;SDS011;69423;47.608;19.366;2023-12-22T01:05:37;8.03;;;7.90;;
80115;SDS011;69423;47.608;19.366;2023-12-22T01:06:09;8.67;;;8.47;;
80115;SDS011;69423;47.608;19.366;2023-12-22T01:06:40;9.27;;;9.00;;
80115;SDS011;69423;47.608;19.366;2023-12-22T01:07:11;8.83;;;8.67;;
80115;SDS011;69423;47.608;19.366;2023-12-22T01:07:43;8.47;;;8.37;;
80115;SDS011;69423;47.608;19.366;2023-12-22T01:08:14;8.30;;;8.20;;
80115;SDS011;69423;47.608;19.366;2023-12-22T01:08:45;8.50;;;8.30;;
80115;SDS011;69423;47.608;19.366;2023-12-22T01:09:20;8.00;;;7.90;;
80115;SDS011;69423;47.608;19.366;2023-12-22T01:09:51;8.07;;;7.97;;
80115;SDS011;69423;47.608;19.366;2023-12-22T01:10:22;8.27;;;8.27;;
80115;SDS011;69423;47.608;19.366;2023-12-22T01:10:53;8.33;;;8.27;;
80115;SDS011;69423;47.608;19.366;2023-12-22T01:11:24;8.60;;;8.50;;
80115;SDS011;69423;47.608;19.366;2023-12-22T01:11:55;9.43;;;9.23;;
80115;SDS011;69423;47.608;19.366;2023-12-22T01:12:27;9.07;;;8.83;;
80115;SDS011;69423;47.608;19.366;2023-12-22T01:12:59;8.83;;;8.63;;
80115;SDS011;69423;47.608;19.366;2023-12-22T01:13:30;8.73;;;8.53;;
80115;SDS011;69423;47.608;19.366;2023-12-22T01:14:01;9.20;;;9.00;;
80115;SDS011;69423;47.608;19.366;2023-12-22T01:14:32;9.40;;;9.20;;
80115;SDS011;69423;47.608;19.366;2023-12-22T01:15:04;8.87;;;8.83;;
80115;SDS011;69423;47.608;19.366;2023-12-22T01:15:35;8.77;;;8.73;;
80115;SDS011;69423;47.608;19.366;2023-12-22T01:16:06;8.93;;;8.80;;
80115;SDS011;69423;47.608;19.366;2023-12-22T01:16:37;8.73;;;8.63;;
80115;SDS011;69423;47.608;19.366;2023-12-22T01:17:08;9.00;;;8.80;;
80115;SDS011;69423;47.608;19.366;2023-12-22T01:17:39;8.93;;;8.83;;
80115;SDS011;69423;47.608;19.366;2023-12-22T01:18:10;8.47;;;8.30;;
80115;SDS011;69423;47.608;19.366;2023-12-22T01:18:41;8.37;;;8.20;;
80115;SDS011;69423;47.608;19.366;2023-12-22T01:19:14;7.97;;;7.77;;
80115;SDS011;69423;47.608;19.366;2023-12-22T01:19:45;7.90;;;7.70;;
80115;SDS011;69423;47.608;19.366;2023-12-22T01:20:16;8.37;;;8.17;;
80115;SDS011;69423;47.608;19.366;2023-12-22T01:20:48;8.33;;;8.13;;
80115;SDS011;69423;47.608;19.366;2023-12-22T01:21:19;8.47;;;8.27;;
80115;SDS011;69423;47.608;19.366;2023-12-22T01:21:50;7.60;;;7.40;;
80115;SDS011;69423;47.608;19.366;2023-12-22T01:22:21;8.13;;;7.93;;
80115;SDS011;69423;47.608;19.366;2023-12-22T01:22:53;9.23;;;9.00;;
80115;SDS011;69423;47.608;19.366;2023-12-22T01:23:24;9.40;;;9.17;;
80115;SDS011;69423;47.608;19.366;2023-12-22T01:23:55;8.47;;;8.23;;
80115;SDS011;69423;47.608;19.366;2023-12-22T01:24:26;8.50;;;8.20;;
80115;SDS011;69423;47.608;19.366;2023-12-22T01:24:57;8.20;;;8.00;;
80115;SDS011;69423;47.608;19.366;2023-12-22T01:25:28;8.27;;;8.10;;
80115;SDS011;69423;47.608;19.366;2023-12-22T01:25:59;8.67;;;8.43;;
80115;SDS011;69423;47.608;19.366;2023-12-22T01:26:31;9.03;;;8.80;;
80115;SDS011;69423;47.608;19.366;2023-12-22T01:27:02;9.27;;;8.97;;
80115;SDS011;69423;47.608;19.366;2023-12-22T01:27:33;9.37;;;9.07;;
80115;SDS011;69423;47.608;19.366;2023-12-22T01:28:04;8.73;;;8.47;;
80115;SDS011;69423;47.608;19.366;2023-12-22T01:28:35;8.70;;;8.43;;
80115;SDS011;69423;47.608;19.366;2023-12-22T01:29:06;8.73;;;8.47;;
80115;SDS011;69423;47.608;19.366;2023-12-22T01:29:37;9.57;;;9.37;;
80115;SDS011;69423;47.608;19.366;2023-12-22T01:30:09;8.77;;;8.57;;
80115;SDS011;69423;47.608;19.366;2023-12-22T01:30:40;8.83;;;8.67;;
80115;SDS011;69423;47.608;19.366;2023-12-22T01:31:11;8.87;;;8.70;;
80115;SDS011;69423;47.608;19.366;2023-12-22T01:31:42;8.53;;;8.43;;
80115;SDS011;69423;47.608;19.366;2023-12-22T01:32:13;8.73;;;8.67;;
80115;SDS011;69423;47.608;19.366;2023-12-22T01:32:44;7.90;;;7.80;;
80115;SDS011;69423;47.608;19.366;2023-12-22T01:33:15;8.00;;;7.93;;
80115;SDS011;69423;47.608;19.366;2023-12-22T01:33:46;8.70;;;8.57;;
80115;SDS011;69423;47.608;19.366;2023-12-22T01:34:17;8.73;;;8.53;;
80115;SDS011;69423;47.608;19.366;2023-12-22T01:34:48;8.63;;;8.33;;
80115;SDS011;69423;47.608;19.366;2023-12-22T01:35:19;9.00;;;8.70;;
80115;SDS011;69423;47.608;19.366;2023-12-22T01:35:50;9.00;;;8.73;;
80115;SDS011;69423;47.608;19.366;2023-12-22T01:36:21;9.00;;;8.77;;
80115;SDS011;69423;47.608;19.366;2023-12-22T01:36:52;8.73;;;8.47;;
80115;SDS011;69423;47.608;19.366;2023-12-22T01:37:23;8.93;;;8.70;;
80115;SDS011;69423;47.608;19.366;2023-12-22T01:37:55;9.03;;;8.77;;
80115;SDS011;69423;47.608;19.366;2023-12-22T01:38:27;8.90;;;8.67;;
80115;SDS011;69423;47.608;19.366;2023-12-22T01:38:58;8.87;;;8.70;;
80115;SDS011;69423;47.608;19.366;2023-12-22T01:39:29;8.77;;;8.77;;
80115;SDS011;69423;47.608;19.366;2023-12-22T01:40:00;8.47;;;8.47;;
80115;SDS011;69423;47.608;19.366;2023-12-22T01:40:31;8.50;;;8.43;;
80115;SDS011;69423;47.608;19.366;2023-12-22T01:41:02;8.40;;;8.37;;
80115;SDS011;69423;47.608;19.366;2023-12-22T01:41:33;8.43;;;8.40;;
80115;SDS011;69423;47.608;19.366;2023-12-22T01:42:04;8.30;;;8.20;;
80115;SDS011;69423;47.608;19.366;2023-12-22T01:42:35;8.43;;;8.30;;
80115;SDS011;69423;47.608;19.366;2023-12-22T01:43:06;9.00;;;8.83;;
80115;SDS011;69423;47.608;19.366;2023-12-22T01:43:37;8.80;;;8.57;;
80115;SDS011;69423;47.608;19.366;2023-12-22T01:44:08;8.67;;;8.47;;
80115;SDS011;69423;47.608;19.366;2023-12-22T01:44:39;8.93;;;8.70;;
80115;SDS011;69423;47.608;19.366;2023-12-22T01:45:10;8.67;;;8.47;;
80115;SDS011;69423;47.608;19.366;2023-12-22T01:45:41;9.07;;;8.83;;
80115;SDS011;69423;47.608;19.366;2023-12-22T01:46:14;9.17;;;8.90;;
80115;SDS011;69423;47.608;19.366;2023-12-22T01:46:45;9.33;;;9.07;;
80115;SDS011;69423;47.608;19.366;2023-12-22T01:47:16;8.97;;;8.73;;
80115;SDS011;69423;47.608;19.366;2023-12-22T01:47:48;8.83;;;8.63;;
80115;SDS011;69423;47.608;19.366;2023-12-22T01:48:19;8.40;;;8.20;;
80115;SDS011;69423;47.608;19.366;2023-12-22T01:48:50;8.97;;;8.73;;
80115;SDS011;69423;47.608;19.366;2023-12-22T01:49:21;8.57;;;8.37;;
80115;SDS011;69423;47.608;19.366;2023-12-22T01:49:52;8.83;;;8.63;;
80115;SDS011;69423;47.608;19.366;2023-12-22T01:50:24;8.53;;;8.33;;
80115;SDS011;69423;47.608;19.366;2023-12-22T01:50:56;9.03;;;8.83;;
80115;SDS011;69423;47.608;19.366;2023-12-22T01:51:32;9.30;;;9.10;;
80115;SDS011;69423;47.608;19.366;2023-12-22T01:52:05;9.30;;;9.07;;
80115;SDS011;69423;47.608;19.366;2023-12-22T01:52:38;9.07;;;8.87;;
80115;SDS011;69423;47.608;19.366;2023-12-22T01:53:12;9.50;;;9.33;;
80115;SDS011;69423;47.608;19.366;2023-12-22T01:53:44;9.17;;;8.97;;
80115;SDS011;69423;47.608;19.366;2023-12-22T01:54:16;8.27;;;8.10;;
80115;SDS011;69423;47.608;19.366;2023-12-22T01:54:47;8.80;;;8.60;;
80115;SDS011;69423;47.608;19.366;2023-12-22T01:55:18;9.37;;;9.17;;
80115;SDS011;69423;47.608;19.366;2023-12-22T01:55:50;8.53;;;8.37;;
80115;SDS011;69423;47.608;19.366;2023-12-22T01:56:22;8.73;;;8.57;;
80115;SDS011;69423;47.608;19.366;2023-12-22T01:56:54;8.20;;;8.17;;
80115;SDS011;69423;47.608;19.366;2023-12-22T01:57:25;8.43;;;8.37;;
80115;SDS011;69423;47.608;19.366;2023-12-22T01:57:56;8.10;;;8.03;;
80115;SDS011;69423;47.608;19.366;2023-12-22T01:58:27;8.23;;;8.17;;
80115;SDS011;69423;47.608;19.366;2023-12-22T01:59:01;8.70;;;8.47;;
80115;SDS011;69423;47.608;19.366;2023-12-22T01:59:32;8.53;;;8.33;;
80115;SDS011;69423;47.608;19.366;2023-12-22T02:00:05;8.50;;;8.23;;
80115;SDS011;69423;47.608;19.366;2023-12-22T02:00:37;8.90;;;8.67;;
80115;SDS011;69423;47.608;19.366;2023-12-22T02:01:08;8.97;;;8.73;;
80115;SDS011;69423;47.608;19.366;2023-12-22T02:01:39;9.20;;;9.00;;
80115;SDS011;69423;47.608;19.366;2023-12-22T02:02:14;8.60;;;8.43;;
80115;SDS011;69423;47.608;19.366;2023-12-22T02:02:47;8.77;;;8.57;;
80115;SDS011;69423;47.608;19.366;2023-12-22T02:03:18;8.90;;;8.67;;
80115;SDS011;69423;47.608;19.366;2023-12-22T02:03:50;9.07;;;8.77;;
80115;SDS011;69423;47.608;19.366;2023-12-22T02:04:22;9.17;;;8.93;;
80115;SDS011;69423;47.608;19.366;2023-12-22T02:04:57;8.53;;;8.37;;
80115;SDS011;69423;47.608;19.366;2023-12-22T02:05:30;7.90;;;7.73;;
80115;SDS011;69423;47.608;19.366;2023-12-22T02:06:01;8.17;;;8.03;;
80115;SDS011;69423;47.608;19.366;2023-12-22T02:06:32;8.37;;;8.23;;
80115;SDS011;69423;47.608;19.366;2023-12-22T02:07:06;8.00;;;7.80;;
80115;SDS011;69423;47.608;19.366;2023-12-22T02:07:41;7.47;;;7.27;;
80115;SDS011;69423;47.608;19.366;2023-12-22T02:08:13;7.83;;;7.63;;
80115;SDS011;69423;47.608;19.366;2023-12-22T02:08:49;7.73;;;7.50;;
80115;SDS011;69423;47.608;19.366;2023-12-22T02:09:20;7.77;;;7.63;;
80115;SDS011;69423;47.608;19.366;2023-12-22T02:09:51;8.33;;;8.13;;
80115;SDS011;69423;47.608;19.366;2023-12-22T02:10:22;8.10;;;7.87;;
80115;SDS011;69423;47.608;19.366;2023-12-22T02:10:53;7.93;;;7.73;;
80115;SDS011;69423;47.608;19.366;2023-12-22T02:11:24;7.60;;;7.43;;
80115;SDS011;69423;47.608;19.366;2023-12-22T02:11:55;8.00;;;7.83;;
80115;SDS011;69423;47.608;19.366;2023-12-22T02:12:26;8.40;;;8.27;;
80115;SDS011;69423;47.608;19.366;2023-12-22T02:12:57;8.03;;;7.90;;
80115;SDS011;69423;47.608;19.366;2023-12-22T02:13:28;8.13;;;7.93;;
80115;SDS011;69423;47.608;19.366;2023-12-22T02:13:59;8.30;;;8.13;;
80115;SDS011;69423;47.608;19.366;2023-12-22T02:14:30;8.37;;;8.20;;
80115;SDS011;69423;47.608;19.366;2023-12-22T02:15:02;8.30;;;8.13;;
80115;SDS011;69423;47.608;19.366;2023-12-22T02:15:35;8.00;;;7.90;;
80115;SDS011;69423;47.608;19.366;2023-12-22T02:16:52;7.80;;;7.60;;
80115;SDS011;69423;47.608;19.366;2023-12-22T02:18:25;7.70;;;7.57;;
80115;SDS011;69423;47.608;19.366;2023-12-22T02:19:04;7.87;;;7.70;;
80115;SDS011;69423;47.608;19.366;2023-12-22T02:19:45;7.80;;;7.70;;
80115;SDS011;69423;47.608;19.366;2023-12-22T02:20:17;7.43;;;7.33;;
80115;SDS011;69423;47.608;19.366;2023-12-22T02:20:48;7.67;;;7.57;;
80115;SDS011;69423;47.608;19.366;2023-12-22T02:21:19;7.93;;;7.73;;
80115;SDS011;69423;47.608;19.366;2023-12-22T02:22:00;7.97;;;7.80;;
80115;SDS011;69423;47.608;19.366;2023-12-22T02:22:35;8.30;;;8.10;;
80115;SDS011;69423;47.608;19.366;2023-12-22T02:23:06;7.93;;;7.67;;
80115;SDS011;69423;47.608;19.366;2023-12-22T02:23:37;7.47;;;7.23;;
80115;SDS011;69423;47.608;19.366;2023-12-22T02:24:08;8.03;;;7.90;;
80115;SDS011;69423;47.608;19.366;2023-12-22T02:24:39;7.97;;;7.77;;
80115;SDS011;69423;47.608;19.366;2023-12-22T02:25:11;7.77;;;7.57;;
80115;SDS011;69423;47.608;19.366;2023-12-22T02:25:42;6.53;;;6.40;;
80115;SDS011;69423;47.608;19.366;2023-12-22T02:26:25;7.23;;;7.13;;
80115;SDS011;69423;47.608;19.366;2023-12-22T02:27:03;7.63;;;7.63;;
80115;SDS011;69423;47.608;19.366;2023-12-22T02:27:48;7.00;;;6.93;;
80115;SDS011;69423;47.608;19.366;2023-12-22T02:28:32;6.67;;;6.57;;
80115;SDS011;69423;47.608;19.366;2023-12-22T02:29:06;6.90;;;6.73;;
80115;SDS011;69423;47.608;19.366;2023-12-22T02:29:42;6.83;;;6.60;;
80115;SDS011;69423;47.608;19.366;2023-12-22T02:32:07;6.17;;;6.03;;
80115;SDS011;69423;47.608;19.366;2023-12-22T02:32:45;6.47;;;6.30;;
80115;SDS011;69423;47.608;19.366;2023-12-22T02:33:19;5.83;;;5.70;;
80115;SDS011;69423;47.608;19.366;2023-12-22T02:33:54;5.80;;;5.67;;
80115;SDS011;69423;47.608;19.366;2023-12-22T02:34:30;6.23;;;6.07;;
80115;SDS011;69423;47.608;19.366;2023-12-22T02:35:05;6.47;;;6.37;;
80115;SDS011;69423;47.608;19.366;2023-12-22T02:35:40;5.83;;;5.73;;
80115;SDS011;69423;47.608;19.366;2023-12-22T02:36:13;6.47;;;6.33;;
80115;SDS011;69423;47.608;19.366;2023-12-22T02:36:47;6.40;;;6.30;;
80115;SDS011;69423;47.608;19.366;2023-12-22T02:37:21;6.60;;;6.50;;
80115;SDS011;69423;47.608;19.366;2023-12-22T02:37:56;6.03;;;5.97;;
80115;SDS011;69423;47.608;19.366;2023-12-22T02:38:30;6.63;;;6.53;;
80115;SDS011;69423;47.608;19.366;2023-12-22T02:39:02;6.67;;;6.50;;
80115;SDS011;69423;47.608;19.366;2023-12-22T02:39:35;6.27;;;6.13;;
80115;SDS011;69423;47.608;19.366;2023-12-22T02:40:07;6.27;;;6.17;;
80115;SDS011;69423;47.608;19.366;2023-12-22T02:40:42;5.87;;;5.77;;
80115;SDS011;69423;47.608;19.366;2023-12-22T02:41:14;6.30;;;6.13;;
80115;SDS011;69423;47.608;19.366;2023-12-22T02:41:46;6.20;;;6.00;;
80115;SDS011;69423;47.608;19.366;2023-12-22T02:42:17;6.23;;;6.13;;
80115;SDS011;69423;47.608;19.366;2023-12-22T02:42:51;6.10;;;6.00;;
80115;SDS011;69423;47.608;19.366;2023-12-22T02:43:23;6.20;;;6.03;;
80115;SDS011;69423;47.608;19.366;2023-12-22T02:43:54;5.90;;;5.80;;
80115;SDS011;69423;47.608;19.366;2023-12-22T02:44:26;5.53;;;5.43;;
80115;SDS011;69423;47.608;19.366;2023-12-22T02:44:58;5.37;;;5.30;;
80115;SDS011;69423;47.608;19.366;2023-12-22T02:45:29;5.47;;;5.37;;
80115;SDS011;69423;47.608;19.366;2023-12-22T02:46:00;5.47;;;5.37;;
80115;SDS011;69423;47.608;19.366;2023-12-22T02:46:31;5.30;;;5.20;;
80115;SDS011;69423;47.608;19.366;2023-12-22T02:47:02;5.27;;;5.13;;
80115;SDS011;69423;47.608;19.366;2023-12-22T02:47:33;5.30;;;5.17;;
80115;SDS011;69423;47.608;19.366;2023-12-22T02:48:05;4.87;;;4.77;;
80115;SDS011;69423;47.608;19.366;2023-12-22T02:48:36;5.27;;;5.07;;
80115;SDS011;69423;47.608;19.366;2023-12-22T02:49:07;5.13;;;5.03;;
80115;SDS011;69423;47.608;19.366;2023-12-22T02:49:38;5.33;;;5.23;;
80115;SDS011;69423;47.608;19.366;2023-12-22T02:50:09;4.83;;;4.80;;
80115;SDS011;69423;47.608;19.366;2023-12-22T02:50:41;4.70;;;4.70;;
80115;SDS011;69423;47.608;19.366;2023-12-22T02:51:12;5.20;;;5.20;;
80115;SDS011;69423;47.608;19.366;2023-12-22T02:51:44;5.20;;;5.20;;
80115;SDS011;69423;47.608;19.366;2023-12-22T02:52:15;5.43;;;5.43;;
80115;SDS011;69423;47.608;19.366;2023-12-22T02:52:46;4.87;;;4.80;;
80115;SDS011;69423;47.608;19.366;2023-12-22T02:53:17;4.60;;;4.53;;
80115;SDS011;69423;47.608;19.366;2023-12-22T02:53:48;4.13;;;4.07;;
80115;SDS011;69423;47.608;19.366;2023-12-22T02:54:19;4.93;;;4.83;;
80115;SDS011;69423;47.608;19.366;2023-12-22T02:54:50;4.67;;;4.57;;
80115;SDS011;69423;47.608;19.366;2023-12-22T02:55:21;4.53;;;4.43;;
80115;SDS011;69423;47.608;19.366;2023-12-22T02:55:52;4.87;;;4.77;;
80115;SDS011;69423;47.608;19.366;2023-12-22T02:56:23;4.87;;;4.77;;
80115;SDS011;69423;47.608;19.366;2023-12-22T02:56:54;4.37;;;4.30;;
80115;SDS011;69423;47.608;19.366;2023-12-22T02:57:25;4.50;;;4.40;;
80115;SDS011;69423;47.608;19.366;2023-12-22T02:57:56;4.10;;;4.00;;
80115;SDS011;69423;47.608;19.366;2023-12-22T02:58:27;3.90;;;3.83;;
80115;SDS011;69423;47.608;19.366;2023-12-22T02:58:58;4.03;;;3.97;;
80115;SDS011;69423;47.608;19.366;2023-12-22T02:59:29;3.80;;;3.77;;
80115;SDS011;69423;47.608;19.366;2023-12-22T03:00:00;3.83;;;3.77;;
80115;SDS011;69423;47.608;19.366;2023-12-22T03:00:31;3.73;;;3.67;;
80115;SDS011;69423;47.608;19.366;2023-12-22T03:01:02;3.83;;;3.77;;
80115;SDS011;69423;47.608;19.366;2023-12-22T03:01:33;4.10;;;4.00;;
80115;SDS011;69423;47.608;19.366;2023-12-22T03:02:04;3.67;;;3.63;;
80115;SDS011;69423;47.608;19.366;2023-12-22T03:02:35;3.50;;;3.40;;
80115;SDS011;69423;47.608;19.366;2023-12-22T03:03:06;3.17;;;3.13;;
80115;SDS011;69423;47.608;19.366;2023-12-22T03:03:37;3.50;;;3.43;;
80115;SDS011;69423;47.608;19.366;2023-12-22T03:04:08;3.37;;;3.33;;
80115;SDS011;69423;47.608;19.366;2023-12-22T03:04:40;3.10;;;3.10;;
80115;SDS011;69423;47.608;19.366;2023-12-22T03:05:11;2.77;;;2.73;;
80115;SDS011;69423;47.608;19.366;2023-12-22T03:05:42;2.90;;;2.90;;
80115;SDS011;69423;47.608;19.366;2023-12-22T03:06:13;2.73;;;2.73;;
80115;SDS011;69423;47.608;19.366;2023-12-22T03:06:44;2.60;;;2.57;;
80115;SDS011;69423;47.608;19.366;2023-12-22T03:07:15;2.20;;;2.17;;
80115;SDS011;69423;47.608;19.366;2023-12-22T03:07:46;2.27;;;2.23;;
80115;SDS011;69423;47.608;19.366;2023-12-22T03:08:17;2.57;;;2.50;;
80115;SDS011;69423;47.608;19.366;2023-12-22T03:08:48;2.47;;;2.47;;
80115;SDS011;69423;47.608;19.366;2023-12-22T03:09:19;2.13;;;2.13;;
80115;SDS011;69423;47.608;19.366;2023-12-22T03:09:50;1.93;;;1.87;;
80115;SDS011;69423;47.608;19.366;2023-12-22T03:10:21;2.07;;;2.00;;